Time;durP1;ratioP1;P1;durP2;ratioP2;P2;SDS_P1;SDS_P2;PMS_P1;PMS_P2;Temp;Humidity;BMP_temperature;BMP_pressure;BME280_temperature;BME280_humidity;BME280_pressure;Samples;Min_cycle;Max_cycle;Signal;HPM_P1;HPM_P2
2023/05/26 00:01:03;;;;;;;21.35;4.40;;;8.50;99.90;;;;;;4915067;29;20092;-84
2023/05/26 00:03:44;;;;;;;21.35;4.47;;;7.50;99.90;;;;;;4915434;29;20040;-84
2023/05/26 00:06:31;;;;;;;24.38;4.93;;;8.70;99.90;;;;;;4915979;29;20044;-84
2023/05/26 00:09:17;;;;;;;26.70;4.38;;;8.60;99.90;;;;;;4902930;29;20501;-85
2023/05/26 00:11:42;;;;;;;24.25;4.78;;;7.90;99.90;;;;;;4896893;29;20168;-85
2023/05/26 00:14:10;;;;;;;23.13;5.03;;;7.50;99.90;;;;;;4895740;29;20136;-84
2023/05/26 00:16:35;;;;;;;21.10;4.30;;;7.60;99.90;;;;;;4896442;29;20045;-84
2023/05/26 00:19:18;;;;;;;24.38;4.20;;;7.40;99.90;;;;;;4896875;29;20048;-84
2023/05/26 00:21:55;;;;;;;21.80;4.60;;;8.70;99.90;;;;;;4896088;29;20049;-84
2023/05/26 00:24:21;;;;;;;27.90;5.05;;;8.40;99.90;;;;;;4896573;29;20052;-84
2023/05/26 00:27:02;;;;;;;26.80;5.30;;;8.30;99.90;;;;;;4897689;29;20056;-84
2023/05/26 00:29:28;;;;;;;23.63;5.05;;;7.50;99.90;;;;;;4896023;29;20068;-84
2023/05/26 00:32:00;;;;;;;22.35;4.60;;;7.60;99.90;;;;;;4890261;29;20049;-85
2023/05/26 00:34:26;;;;;;;28.15;5.57;;;7.60;99.90;;;;;;4877024;29;20053;-85
2023/05/26 00:36:52;;;;;;;21.65;4.85;;;7.80;99.90;;;;;;4889931;29;20052;-84
2023/05/26 00:39:27;;;;;;;;;;;;;;;;;;;;;
2023/05/26 00:41:54;;;;;;;23.80;4.93;;;7.10;99.90;;;;;;4895572;29;20056;-84
2023/05/26 00:44:25;;;;;;;23.02;4.63;;;8.20;99.90;;;;;;4897558;29;20128;-84
2023/05/26 00:46:51;;;;;;;21.42;4.68;;;8.10;99.90;;;;;;4896377;29;20127;-85
2023/05/26 00:49:32;;;;;;;18.45;5.20;;;8.20;99.90;;;;;;4895510;29;20473;-84
2023/05/26 00:52:07;;;;;;;23.73;5.03;;;7.40;99.90;;;;;;4896757;29;20047;-84
2023/05/26 00:54:33;;;;;;;19.42;4.88;;;7.70;99.90;;;;;;4896318;29;20052;-84
2023/05/26 00:57:17;;;;;;;21.85;5.07;;;8.10;99.90;;;;;;4895688;29;20044;-84
2023/05/26 00:59:42;;;;;;;;;;;7.30;99.90;;;;;;4896641;29;20056;-85
2023/05/26 01:02:12;;;;;;;24.27;4.68;;;7.10;99.90;;;;;;4897154;29;19999;-84
2023/05/26 01:04:40;;;;;;;26.05;5.57;;;7.40;99.90;;;;;;4895001;29;20060;-84
2023/05/26 01:07:12;;;;;;;24.70;5.25;;;7.50;99.90;;;;;;4877404;29;20052;-84
2023/05/26 01:09:38;;;;;;;25.17;4.40;;;7.00;99.90;;;;;;4876723;29;20144;-84
2023/05/26 01:12:08;;;;;;;23.83;5.38;;;8.10;99.90;;;;;;4877646;29;20434;-84
2023/05/26 01:14:54;;;;;;;23.13;5.00;;;7.10;99.90;;;;;;4877095;29;20045;-84
2023/05/26 01:17:22;;;;;;;19.30;4.72;;;6.70;99.90;;;;;;4877466;29;20080;-84
2023/05/26 01:20:13;;;;;;;22.92;5.10;;;8.10;99.90;;;;;;4877784;29;20446;-84
2023/05/26 01:23:00;;;;;;;23.20;5.03;;;7.00;99.90;;;;;;4877240;29;20049;-84
2023/05/26 01:25:25;;;;;;;22.48;5.05;;;7.10;99.90;;;;;;4876701;29;20566;-84
2023/05/26 01:28:17;;;;;;;21.33;5.07;;;6.80;99.90;;;;;;4878754;29;20113;-84
2023/05/26 01:30:44;;;;;;;29.25;5.38;;;7.00;99.90;;;;;;4881639;29;20053;-83
2023/05/26 01:33:25;;;;;;;21.55;4.53;;;7.30;99.90;;;;;;4880466;29;20069;-85
2023/05/26 01:35:50;;;;;;;34.75;5.38;;;6.80;99.90;;;;;;4880888;29;20052;-84
2023/05/26 01:38:17;;;;;;;23.40;4.50;;;7.40;99.90;;;;;;4879832;29;20041;-83
2023/05/26 01:41:10;;;;;;;24.77;4.82;;;7.40;99.90;;;;;;4880775;29;20057;-84
2023/05/26 01:44:02;;;;;;;25.45;5.28;;;6.70;99.90;;;;;;4881810;29;20105;-84
2023/05/26 01:46:54;;;;;;;24.10;5.05;;;7.00;99.90;;;;;;4884917;29;20127;-84
2023/05/26 01:49:23;;;;;;;25.63;5.13;;;7.80;99.90;;;;;;4899278;29;20052;-83
2023/05/26 01:52:10;;;;;;;25.95;5.25;;;7.00;99.90;;;;;;4898904;29;20056;-84
2023/05/26 01:54:44;;;;;;;25.08;5.05;;;7.80;99.90;;;;;;4900468;29;20059;-85
2023/05/26 01:57:30;;;;;;;23.58;4.90;;;6.90;99.90;;;;;;4899567;29;20060;-84
2023/05/26 01:59:56;;;;;;;23.38;4.50;;;6.40;99.90;;;;;;4950864;23;20076;-84
2023/05/26 02:02:21;;;;;;;26.15;5.47;;;7.20;99.90;;;;;;4909073;29;20102;-84
2023/05/26 02:05:03;;;;;;;24.83;5.38;;;7.30;99.90;;;;;;4917703;29;20161;-84
2023/05/26 02:07:29;;;;;;;21.25;4.80;;;6.80;99.90;;;;;;4916362;29;20051;-84
2023/05/26 02:09:55;;;;;;;21.80;5.07;;;7.80;99.90;;;;;;4918456;29;20059;-84
2023/05/26 02:12:41;;;;;;;26.45;5.35;;;6.70;99.90;;;;;;4918961;29;20086;-84
2023/05/26 02:15:07;;;;;;;24.60;5.00;;;6.60;99.90;;;;;;4918891;29;20056;-84
2023/05/26 02:17:36;;;;;;;24.10;4.60;;;6.70;99.90;;;;;;4918343;29;20071;-84
2023/05/26 02:20:02;;;;;;;23.07;4.67;;;6.90;99.90;;;;;;4918642;29;20218;-84
2023/05/26 02:22:28;;;;;;;23.70;4.63;;;6.70;99.90;;;;;;4917845;29;20123;-83
2023/05/26 02:25:12;;;;;;;26.75;5.05;;;7.70;99.90;;;;;;4917782;29;20591;-84
2023/05/26 02:27:38;;;;;;;25.95;5.28;;;7.90;99.90;;;;;;4916951;29;20134;-84
2023/05/26 02:30:07;;;;;;;26.88;5.78;;;6.90;99.90;;;;;;4918836;29;20127;-84
2023/05/26 02:32:34;;;;;;;23.35;4.78;;;6.70;99.90;;;;;;4917485;29;20492;-85
2023/05/26 02:35:00;;;;;;;26.65;5.10;;;7.70;99.90;;;;;;4916944;29;20047;-84
2023/05/26 02:37:44;;;;;;;;;;;6.60;99.90;;;;;;4919480;29;20056;-85
2023/05/26 02:40:10;;;;;;;29.67;4.95;;;7.90;99.90;;;;;;4916218;29;19974;-85
2023/05/26 02:42:36;;;;;;;27.73;5.93;;;6.60;99.90;;;;;;4917005;29;20047;-84
2023/05/26 02:45:16;;;;;;;28.90;5.32;;;7.10;99.90;;;;;;4918420;29;20080;-85
2023/05/26 02:47:42;;;;;;;23.92;5.05;;;7.70;99.90;;;;;;4916906;29;20132;-85
2023/05/26 02:50:08;;;;;;;27.67;5.30;;;6.40;99.90;;;;;;4916691;29;20131;-84
2023/05/26 02:52:34;;;;;;;21.38;4.53;;;6.50;99.90;;;;;;4918739;29;20119;-85
2023/05/26 02:55:15;;;;;;;23.27;5.28;;;7.00;99.90;;;;;;4917536;29;20473;-84
2023/05/26 02:57:40;;;;;;;22.67;5.05;;;6.40;99.90;;;;;;4918619;29;20044;-84
2023/05/26 03:00:07;;;;;;;26.92;5.55;;;7.50;99.90;;;;;;4915714;29;20143;-84
2023/05/26 03:02:49;;;;;;;28.08;5.40;;;6.50;99.90;;;;;;4917227;29;20052;-84
2023/05/26 03:05:14;;;;;;;23.20;5.35;;;7.30;99.90;;;;;;4918395;29;20045;-84
2023/05/26 03:07:40;;;;;;;25.08;4.95;;;6.50;99.90;;;;;;4916836;29;20048;-85
2023/05/26 03:10:06;;;;;;;29.58;5.38;;;6.50;99.90;;;;;;4916248;29;20473;-85
2023/05/26 03:12:50;;;;;;;24.73;5.43;;;6.50;99.90;;;;;;4918485;29;20040;-84
2023/05/26 03:15:15;;;;;;;23.55;4.63;;;7.00;99.90;;;;;;4918083;29;20075;-84
2023/05/26 03:17:41;;;;;;;33.00;6.43;;;6.90;99.90;;;;;;4915798;29;20098;-84
2023/05/26 03:20:07;;;;;;;22.85;4.88;;;7.40;99.90;;;;;;4917481;29;20335;-85
2023/05/26 03:22:33;;;;;;;23.25;4.90;;;6.40;99.90;;;;;;4917067;29;20131;-85
2023/05/26 03:25:14;;;;;;;26.05;4.72;;;6.40;99.90;;;;;;4917010;29;20048;-84
2023/05/26 03:27:39;;;;;;;24.73;5.07;;;7.20;99.90;;;;;;4916923;29;20143;-84
2023/05/26 03:30:06;;;;;;;25.13;5.15;;;7.80;99.90;;;;;;4917636;29;20123;-85
2023/05/26 03:32:32;;;;;;;28.67;5.20;;;6.40;99.90;;;;;;4918038;29;20063;-85
2023/05/26 03:34:57;;;;;;;26.70;4.85;;;6.70;99.90;;;;;;4918030;29;20385;-84
2023/05/26 03:37:41;;;;;;;24.45;4.93;;;6.30;99.90;;;;;;4917025;29;20044;-84
2023/05/26 03:40:16;;;;;;;27.83;5.32;;;6.60;99.90;;;;;;4917747;29;20052;-84
2023/05/26 03:42:42;;;;;;;22.48;4.75;;;6.40;99.90;;;;;;4916312;29;20485;-85
2023/05/26 03:45:08;;;;;;;27.65;5.32;;;7.40;99.90;;;;;;4916569;29;20044;-85
2023/05/26 03:47:48;;;;;;;22.77;4.53;;;6.40;99.90;;;;;;4917172;29;20088;-85
2023/05/26 03:50:14;;;;;;;23.65;4.93;;;6.40;99.90;;;;;;4917575;29;20044;-84
2023/05/26 03:52:40;;;;;;;25.08;5.13;;;6.40;99.90;;;;;;4916232;29;20044;-84
2023/05/26 03:55:09;;;;;;;26.67;4.82;;;7.60;99.90;;;;;;4915664;29;20087;-85
2023/05/26 03:57:53;;;;;;;23.95;5.10;;;6.30;99.90;;;;;;4916002;29;20044;-84
2023/05/26 04:00:19;;;;;;;25.08;5.78;;;6.90;99.90;;;;;;4909533;29;20056;-84
2023/05/26 04:02:44;;;;;;;27.60;5.50;;;6.40;99.90;;;;;;4884052;29;20060;-84
2023/05/26 04:05:29;;;;;;;23.33;4.82;;;6.20;99.90;;;;;;4895369;29;20136;-84
2023/05/26 04:07:54;;;;;;;;;;;5.70;99.90;;;;;;4896897;29;20083;-84
2023/05/26 04:10:32;;;;;;;25.10;5.10;;;6.90;99.90;;;;;;4910488;29;20370;-84
2023/05/26 04:12:58;;;;;;;26.48;5.20;;;7.10;99.90;;;;;;4914643;29;20040;-84
2023/05/26 04:15:24;;;;;;;24.73;5.72;;;;;;;;;;4915471;29;20040;-84
2023/05/26 04:18:05;;;;;;;20.80;4.65;;;6.50;99.90;;;;;;4915231;29;20054;-84
2023/05/26 04:20:31;;;;;;;28.70;5.70;;;7.30;99.90;;;;;;4914848;29;20055;-84
2023/05/26 04:22:56;;;;;;;22.23;5.30;;;7.60;99.90;;;;;;4915801;29;20405;-83
2023/05/26 04:25:34;;;;;;;25.08;4.65;;;6.90;99.90;;;;;;4902142;29;20141;-84
2023/05/26 04:28:02;;;;;;;26.30;4.93;;;6.60;99.90;;;;;;4878854;29;20060;-84
2023/05/26 04:30:28;;;;;;;27.10;5.15;;;7.30;99.90;;;;;;4886039;29;20092;-84
2023/05/26 04:32:53;;;;;;;24.30;5.22;;;7.50;99.90;;;;;;4894820;29;20045;-84
2023/05/26 04:35:33;;;;;;;27.60;5.80;;;7.20;99.90;;;;;;4895590;29;20056;-84
2023/05/26 04:37:59;;;;;;;25.80;5.38;;;6.80;99.90;;;;;;4896634;29;20091;-83
2023/05/26 04:40:25;;;;;;;21.73;4.85;;;8.40;99.90;;;;;;4895671;29;20088;-84
2023/05/26 04:42:50;;;;;;;25.70;5.05;;;8.30;99.90;;;;;;4896114;29;20104;-84
2023/05/26 04:45:33;;;;;;;22.33;5.35;;;8.30;99.90;;;;;;4911762;29;20382;-84
2023/05/26 04:48:00;;;;;;;27.38;5.30;;;8.40;99.90;;;;;;4880988;29;20053;-84
2023/05/26 04:50:25;;;;;;;26.27;5.28;;;7.60;99.90;;;;;;4877557;29;20431;-84
2023/05/26 04:53:06;;;;;;;26.55;5.18;;;7.00;99.90;;;;;;4877662;29;20139;-84
2023/05/26 04:55:35;;;;;;;28.33;5.82;;;8.50;99.90;;;;;;4877455;29;20047;-84
2023/05/26 04:58:02;;;;;;;27.48;5.68;;;7.10;99.90;;;;;;4879847;29;20113;-84
2023/05/26 05:00:44;;;;;;;23.52;4.88;;;7.30;99.90;;;;;;4877678;29;20084;-84
2023/05/26 05:03:12;;;;;;;27.55;5.25;;;7.80;99.90;;;;;;4877804;29;20049;-84
2023/05/26 05:05:53;;;;;;;24.73;5.20;;;8.30;99.90;;;;;;4877984;29;20045;-84
2023/05/26 05:08:19;;;;;;;20.05;4.80;;;7.70;99.90;;;;;;4878718;29;20075;-84
2023/05/26 05:10:44;;;;;;;28.40;5.30;;;7.30;99.90;;;;;;4877893;29;20608;-84
2023/05/26 05:13:10;;;;;;;21.83;5.10;;;7.80;99.90;;;;;;4901982;29;20110;-84
2023/05/26 05:15:36;;;;;;;22.10;5.00;;;8.60;99.90;;;;;;4914276;29;20540;-84
2023/05/26 05:18:14;;;;;;;21.40;5.05;;;8.20;99.90;;;;;;4906470;29;20055;-84
2023/05/26 05:20:39;;;;;;;25.25;5.35;;;8.80;99.90;;;;;;4911767;29;20045;-84
2023/05/26 05:23:05;;;;;;;26.17;4.93;;;7.90;99.90;;;;;;4896742;29;20087;-84
2023/05/26 05:25:46;;;;;;;26.17;5.93;;;9.10;99.90;;;;;;4896094;29;20041;-84
2023/05/26 05:28:11;;;;;;;25.75;5.25;;;7.60;99.90;;;;;;4911364;29;20139;-84
2023/05/26 05:30:37;;;;;;;23.45;4.93;;;7.90;99.90;;;;;;4894827;29;20123;-84
2023/05/26 05:33:18;;;;;;;20.45;5.00;;;9.50;99.90;;;;;;4911613;29;20482;-84
2023/05/26 05:35:45;;;;;;;19.65;4.80;;;9.00;99.90;;;;;;4895976;29;20056;-84
2023/05/26 05:38:21;;;;;;;;;;;;;;;;;;;;;
2023/05/26 05:40:53;;;;;;;23.85;5.13;;;8.30;99.90;;;;;;4897497;29;20117;-84
2023/05/26 05:43:30;;;;;;;27.08;5.18;;;9.60;99.90;;;;;;4897197;29;20489;-84
2023/05/26 05:45:56;;;;;;;23.65;4.65;;;9.30;99.90;;;;;;4896053;29;20044;-84
2023/05/26 05:48:31;;;;;;;25.20;6.18;;;9.70;99.90;;;;;;4896873;29;20052;-84
2023/05/26 05:51:00;;;;;;;25.17;4.88;;;10.00;99.90;;;;;;4910889;29;20080;-84
2023/05/26 05:53:44;;;;;;;19.67;5.28;;;10.20;99.90;;;;;;4896524;29;20636;-84
2023/05/26 05:56:10;;;;;;;25.38;5.13;;;10.30;99.90;;;;;;4895612;29;20099;-87
2023/05/26 05:58:56;;;;;;;25.02;4.55;;;9.70;99.90;;;;;;4893763;29;20560;-82
2023/05/26 06:01:22;;;;;;;22.80;4.47;;;9.10;99.90;;;;;;4876242;29;20061;-79
2023/05/26 06:03:47;;;;;;;24.88;4.88;;;9.40;99.90;;;;;;4878569;29;20603;-80
2023/05/26 06:06:13;;;;;;;25.48;4.80;;;9.50;99.90;;;;;;4875776;29;20056;-80
2023/05/26 06:08:39;;;;;;;22.80;4.47;;;9.60;99.90;;;;;;4876731;29;20144;-80
2023/05/26 06:11:05;;;;;;;24.98;5.18;;;9.60;99.90;;;;;;4877054;29;20445;-82
2023/05/26 06:13:30;;;;;;;24.52;4.90;;;9.70;99.90;;;;;;4877532;29;20052;-81
2023/05/26 06:15:56;;;;;;;23.15;5.15;;;9.80;99.90;;;;;;4881436;29;20113;-81
2023/05/26 06:18:22;;;;;;;20.10;4.30;;;9.80;99.90;;;;;;4899151;29;20421;-81
2023/05/26 06:20:47;;;;;;;21.70;4.72;;;10.50;99.90;;;;;;4898291;29;20052;-81
2023/05/26 06:23:13;;;;;;;24.48;4.70;;;10.10;99.90;;;;;;4903608;29;20044;-82
2023/05/26 06:25:39;;;;;;;22.92;4.47;;;10.10;99.90;;;;;;4917905;29;20140;-82
2023/05/26 06:28:04;;;;;;;24.15;4.60;;;10.20;99.90;;;;;;4917165;29;20102;-81
2023/05/26 06:30:39;;;;;;;20.90;4.35;;;10.30;99.90;;;;;;4917154;29;20044;-82
2023/05/26 06:33:05;;;;;;;22.63;4.80;;;10.30;99.90;;;;;;4916956;29;20043;-81
2023/05/26 06:35:42;;;;;;;21.27;4.32;;;11.30;99.90;;;;;;4919140;29;20095;-81
2023/05/26 06:38:20;;;;;;;17.60;4.43;;;10.70;99.90;;;;;;4917182;29;20404;-82
2023/05/26 06:40:46;;;;;;;21.05;3.90;;;11.00;99.90;;;;;;4916533;29;20127;-82
2023/05/26 06:43:11;;;;;;;23.35;4.82;;;11.10;99.90;;;;;;4918835;29;20139;-83
2023/05/26 06:45:37;;;;;;;22.70;4.80;;;11.30;99.90;;;;;;4917426;29;20083;-82
2023/05/26 06:48:02;;;;;;;16.17;4.30;;;10.40;99.90;;;;;;4902924;29;20482;-82
2023/05/26 06:50:28;;;;;;;20.77;4.40;;;10.50;99.90;;;;;;4898228;29;20080;-82
2023/05/26 06:52:54;;;;;;;19.20;4.80;;;10.60;99.90;;;;;;4898842;29;20049;-82
2023/05/26 06:55:19;;;;;;;26.17;5.00;;;10.60;99.90;;;;;;4897218;29;20516;-81
2023/05/26 06:57:45;;;;;;;18.30;4.00;;;10.80;99.90;;;;;;4898735;29;20425;-82
2023/05/26 07:00:11;;;;;;;21.33;4.53;;;10.80;99.90;;;;;;4897895;29;20064;-82
2023/05/26 07:02:49;;;;;;;24.33;4.72;;;11.00;99.90;;;;;;4898121;29;20048;-82
2023/05/26 07:05:38;;;;;;;20.20;5.07;;;11.30;99.90;;;;;;4899646;29;20135;-84
2023/05/26 07:08:04;;;;;;;20.92;4.45;;;10.90;99.90;;;;;;4897626;29;20080;-85
2023/05/26 07:10:29;;;;;;;15.32;4.35;;;10.90;99.90;;;;;;4897925;29;20075;-82
2023/05/26 07:12:55;;;;;;;17.85;4.40;;;11.60;99.90;;;;;;4898628;29;20094;-81
2023/05/26 07:15:21;;;;;;;19.95;4.72;;;11.20;99.90;;;;;;4897357;29;20911;-81
2023/05/26 07:17:46;;;;;;;23.40;4.57;;;11.30;99.90;;;;;;4897849;29;20059;-81
2023/05/26 07:20:12;;;;;;;21.10;4.13;;;12.30;99.90;;;;;;4899089;29;20393;-81
2023/05/26 07:22:43;;;;;;;17.63;3.75;;;11.50;99.90;;;;;;4898906;29;20123;-81
2023/05/26 07:25:09;;;;;;;19.35;4.85;;;11.50;99.90;;;;;;4891634;29;20069;-81
2023/05/26 07:27:35;;;;;;;21.95;4.78;;;12.50;99.90;;;;;;4893575;29;20104;-82
2023/05/26 07:30:00;;;;;;;18.17;4.05;;;12.30;99.90;;;;;;4889909;29;20561;-82
2023/05/26 07:32:26;;;;;;;15.93;4.05;;;12.10;99.90;;;;;;4891305;29;20390;-82
2023/05/26 07:34:51;;;;;;;21.70;5.57;;;11.70;99.90;;;;;;4902474;23;20146;-81
2023/05/26 07:37:17;;;;;;;17.25;4.00;;;11.80;99.90;;;;;;4860235;29;20089;-82
2023/05/26 07:39:42;;;;;;;17.70;4.82;;;12.10;99.90;;;;;;4860323;29;20132;-82
2023/05/26 07:42:08;;;;;;;16.65;4.40;;;12.40;99.90;;;;;;4860328;29;20149;-82
2023/05/26 07:44:34;;;;;;;19.65;4.50;;;12.50;99.90;;;;;;4859747;29;20046;-82
2023/05/26 07:46:59;;;;;;;15.13;4.68;;;12.60;99.90;;;;;;4860976;29;20106;-81
2023/05/26 07:49:25;;;;;;;19.25;4.03;;;12.40;99.90;;;;;;4860599;29;20452;-82
2023/05/26 07:52:03;;;;;;;17.50;4.40;;;12.30;99.90;;;;;;4859841;29;20050;-82
2023/05/26 07:54:29;;;;;;;17.30;4.25;;;12.90;99.90;;;;;;4860168;29;20057;-82
2023/05/26 07:57:13;;;;;;;14.30;3.78;;;12.80;99.90;;;;;;4861465;29;20403;-82
2023/05/26 07:59:39;;;;;;;18.65;3.92;;;11.90;99.90;;;;;;4859708;29;20045;-82
2023/05/26 08:02:26;;;;;;;18.58;4.18;;;12.10;99.90;;;;;;4860495;29;20044;-82
2023/05/26 08:04:52;;;;;;;18.15;4.15;;;11.80;99.90;;;;;;4859289;29;20473;-82
2023/05/26 08:07:17;;;;;;;20.98;4.20;;;12.40;99.90;;;;;;4858919;29;20109;-82
2023/05/26 08:09:43;;;;;;;18.98;3.83;;;12.40;99.90;;;;;;4859536;29;20045;-81
2023/05/26 08:12:11;;;;;;;16.25;3.88;;;12.40;99.90;;;;;;4860541;29;20046;-83
2023/05/26 08:14:37;;;;;;;19.13;3.70;;;13.20;99.90;;;;;;4859943;29;20049;-83
2023/05/26 08:17:06;;;;;;;18.85;4.22;;;13.50;99.90;;;;;;4860429;29;20087;-81
2023/05/26 08:19:32;;;;;;;23.08;4.93;;;12.80;99.90;;;;;;4859143;29;20618;-81
2023/05/26 08:22:03;;;;;;;19.98;3.97;;;13.20;99.90;;;;;;4861497;29;20128;-81
2023/05/26 08:24:29;;;;;;;18.73;4.53;;;12.80;99.90;;;;;;4846017;29;20146;-81
2023/05/26 08:27:00;;;;;;;20.45;4.53;;;13.60;99.90;;;;;;4858305;29;20128;-81
2023/05/26 08:29:26;;;;;;;22.48;4.40;;;12.90;99.90;;;;;;4860497;29;20057;-81
2023/05/26 08:31:52;;;;;;;22.75;4.82;;;14.00;99.90;;;;;;4854792;29;20379;-82
2023/05/26 08:34:18;;;;;;;18.63;4.97;;;14.40;99.90;;;;;;4849913;29;20060;-82
2023/05/26 08:39:47;;;;;;;19.13;4.47;;;13.70;99.90;;;;;;4839778;29;20049;-81
2023/05/26 08:42:17;;;;;;;21.05;4.32;;;13.40;99.90;;;;;;4857532;29;20049;-81
2023/05/26 08:44:44;;;;;;;20.65;4.20;;;14.30;99.90;;;;;;4852702;29;20061;-81
2023/05/26 08:47:11;;;;;;;15.35;4.07;;;14.40;99.90;;;;;;4848464;29;20125;-81
2023/05/26 08:49:44;;;;;;;18.38;4.25;;;14.50;99.90;;;;;;4854974;29;20526;-81
2023/05/26 08:52:13;;;;;;;17.98;4.57;;;15.40;99.90;;;;;;4857424;29;20049;-81
2023/05/26 08:54:39;;;;;;;17.38;4.00;;;14.60;99.90;;;;;;4859880;29;20049;-82
2023/05/26 08:57:06;;;;;;;21.77;4.45;;;14.60;99.90;;;;;;4859168;29;20521;-82
2023/05/26 08:59:32;;;;;;;20.05;4.85;;;14.70;99.90;;;;;;4859453;29;20046;-80
2023/05/26 09:01:59;;;;;;;16.15;3.92;;;15.30;99.90;;;;;;4858543;29;20097;-80
2023/05/26 09:04:29;;;;;;;16.70;3.90;;;15.00;99.90;;;;;;4859166;29;20055;-80
2023/05/26 09:06:55;;;;;;;15.63;4.50;;;15.30;99.90;;;;;;4859646;29;20037;-81
2023/05/26 09:09:21;;;;;;;16.70;4.30;;;15.00;99.90;;;;;;4858188;29;20498;-81
2023/05/26 09:11:46;;;;;;;16.40;4.28;;;15.60;99.90;;;;;;4860819;29;20053;-81
2023/05/26 09:14:17;;;;;;;18.67;4.30;;;15.60;99.90;;;;;;4858952;29;20109;-81
2023/05/26 09:16:43;;;;;;;15.82;4.03;;;15.00;99.90;;;;;;4859621;29;20056;-81
2023/05/26 09:19:17;;;;;;;16.58;3.95;;;15.60;99.90;;;;;;4859011;29;20056;-81
2023/05/26 09:21:50;;;;;;;18.70;3.95;;;15.10;99.90;;;;;;4858442;29;20041;-81
2023/05/26 09:24:22;;;;;;;19.58;4.20;;;15.20;99.90;;;;;;4858884;29;20045;-82
2023/05/26 09:26:49;;;;;;;15.73;4.20;;;15.40;99.90;;;;;;4860554;29;20046;-81
2023/05/26 09:29:15;;;;;;;17.98;4.55;;;15.50;99.90;;;;;;4858289;29;20513;-81
2023/05/26 09:31:43;;;;;;;14.52;4.28;;;15.70;99.90;;;;;;4860583;29;20044;-81
2023/05/26 09:34:13;;;;;;;14.98;4.00;;;15.80;99.90;;;;;;4859234;29;20061;-81
2023/05/26 09:36:40;;;;;;;15.02;4.20;;;15.90;99.90;;;;;;4859461;29;20050;-82
2023/05/26 09:39:08;;;;;;;15.43;4.30;;;16.00;99.90;;;;;;4858598;29;20132;-82
2023/05/26 09:41:39;;;;;;;17.38;4.32;;;15.70;99.90;;;;;;4860462;29;20049;-83
2023/05/26 09:44:15;;;;;;;15.60;3.67;;;15.80;99.90;;;;;;4859121;29;20068;-83
2023/05/26 09:46:43;;;;;;;13.75;3.88;;;16.00;99.90;;;;;;4858371;29;20049;-87
2023/05/26 09:49:13;;;;;;;15.98;4.35;;;16.00;99.90;;;;;;4859141;29;20046;-84
2023/05/26 09:51:44;;;;;;;15.40;4.13;;;16.50;99.90;;;;;;4861951;29;20054;-81
2023/05/26 09:54:10;;;;;;;15.00;3.67;;;16.10;99.90;;;;;;4862503;29;20558;-81
2023/05/26 09:56:51;;;;;;;19.95;4.30;;;17.00;99.90;;;;;;4864042;29;20049;-82
2023/05/26 09:59:20;;;;;;;15.32;4.22;;;16.10;99.80;;;;;;4862578;29;20053;-82
2023/05/26 10:01:46;;;;;;;16.05;4.35;;;16.20;99.90;;;;;;4860860;29;20406;-82
2023/05/26 10:04:14;;;;;;;16.05;3.95;;;16.30;99.90;;;;;;4861555;29;20204;-81
2023/05/26 10:06:44;;;;;;;13.30;3.40;;;16.60;99.90;;;;;;4862775;29;20045;-81
2023/05/26 10:09:17;;;;;;;15.43;3.50;;;16.50;99.10;;;;;;4867180;29;20520;-81
2023/05/26 10:11:46;;;;;;;13.63;3.78;;;16.60;98.70;;;;;;4881648;29;20045;-81
2023/05/26 10:14:12;;;;;;;16.58;3.75;;;16.60;98.90;;;;;;4864558;29;20124;-81
2023/05/26 10:16:38;;;;;;;13.60;3.72;;;16.80;98.00;;;;;;4861766;29;20486;-81
2023/05/26 10:19:07;;;;;;;14.93;3.88;;;16.60;98.40;;;;;;4860969;29;20045;-81
2023/05/26 10:21:37;;;;;;;14.50;3.30;;;16.50;98.00;;;;;;4843596;29;20042;-80
2023/05/26 10:24:11;;;;;;;17.52;3.63;;;17.50;98.10;;;;;;4843598;29;20050;-80
2023/05/26 10:27:04;;;;;;;16.88;4.22;;;16.70;97.90;;;;;;4853602;29;20041;-80
2023/05/26 10:29:39;;;;;;;16.15;3.20;;;17.00;97.50;;;;;;4860999;29;20497;-80
2023/05/26 10:32:05;;;;;;;14.48;3.40;;;17.30;97.50;;;;;;4860771;29;20050;-80
2023/05/26 10:34:38;;;;;;;13.73;3.10;;;17.50;97.50;;;;;;4862527;29;20089;-81
2023/05/26 10:37:17;;;;;;;14.93;3.20;;;17.50;97.20;;;;;;4860958;29;20045;-80
2023/05/26 10:39:43;;;;;;;12.63;3.33;;;17.40;96.10;;;;;;4859840;29;20089;-80
2023/05/26 10:42:19;;;;;;;11.70;3.47;;;18.10;96.70;;;;;;4861038;29;20405;-80
2023/05/26 10:44:54;;;;;;;11.68;3.40;;;17.80;96.60;;;;;;4860397;29;20486;-80
2023/05/26 10:47:20;;;;;;;13.85;3.30;;;17.90;96.30;;;;;;4868286;23;20050;-81
2023/05/26 10:49:58;;;;;;;14.25;4.13;;;17.90;96.20;;;;;;4879848;29;20053;-80
2023/05/26 10:52:27;;;;;;;13.07;3.78;;;18.00;96.10;;;;;;4880484;29;20454;-80
2023/05/26 10:54:53;;;;;;;12.50;3.17;;;18.10;95.80;;;;;;4880324;29;20068;-79
2023/05/26 10:57:29;;;;;;;13.45;3.50;;;18.20;96.00;;;;;;4881173;29;20052;-80
2023/05/26 10:59:56;;;;;;;15.85;3.58;;;18.30;95.40;;;;;;4879304;29;20064;-80
2023/05/26 11:02:21;;;;;;;11.13;3.08;;;19.00;95.90;;;;;;4877804;29;20493;-80
2023/05/26 11:04:49;;;;;;;15.75;3.17;;;18.10;94.60;;;;;;4881083;29;20156;-80
2023/05/26 11:07:21;;;;;;;11.48;3.38;;;18.20;94.80;;;;;;4880110;29;20429;-80
2023/05/26 11:09:58;;;;;;;11.85;3.50;;;18.10;94.90;;;;;;4880049;29;20064;-81
2023/05/26 11:12:23;;;;;;;14.63;3.70;;;18.20;95.20;;;;;;4879411;29;20100;-80
2023/05/26 11:14:49;;;;;;;11.95;3.28;;;18.30;95.30;;;;;;4879164;29;20128;-81
2023/05/26 11:17:21;;;;;;;12.88;3.30;;;18.40;95.20;;;;;;4880742;29;20057;-79
2023/05/26 11:19:58;;;;;;;14.68;4.00;;;18.50;94.60;;;;;;4881178;29;20043;-83
2023/05/26 11:22:24;;;;;;;12.57;3.63;;;18.60;94.60;;;;;;4879972;29;20089;-82
2023/05/26 11:24:51;;;;;;;14.68;3.20;;;18.60;95.10;;;;;;4881094;29;20129;-86
2023/05/26 11:27:26;;;;;;;12.52;3.50;;;18.70;95.10;;;;;;4879368;29;20116;-84
2023/05/26 11:29:59;;;;;;;14.98;3.22;;;18.70;94.90;;;;;;4878768;29;20076;-81
2023/05/26 11:32:35;;;;;;;15.00;3.67;;;18.90;94.90;;;;;;4879489;29;20048;-82
2023/05/26 11:35:00;;;;;;;14.00;3.33;;;18.90;94.50;;;;;;4879703;29;20390;-85
2023/05/26 11:37:26;;;;;;;13.90;3.80;;;19.70;94.90;;;;;;4905989;23;20077;-83
2023/05/26 11:39:52;;;;;;;11.52;3.28;;;19.20;94.90;;;;;;4898029;29;20552;-84
2023/05/26 11:42:17;;;;;;;12.45;3.85;;;19.60;95.30;;;;;;4897385;29;20044;-84
2023/05/26 11:44:44;;;;;;;13.13;3.75;;;19.30;94.80;;;;;;4898344;29;20442;-83
2023/05/26 11:47:14;;;;;;;11.60;3.20;;;19.30;94.20;;;;;;4897710;29;20074;-79
2023/05/26 11:49:47;;;;;;;13.75;3.67;;;19.30;94.10;;;;;;4898546;29;20132;-82
2023/05/26 11:52:14;;;;;;;12.07;3.33;;;19.50;94.00;;;;;;4898383;29;20409;-82
2023/05/26 11:54:39;;;;;;;14.10;3.88;;;19.60;94.00;;;;;;4897437;29;20052;-82
2023/05/26 11:57:05;;;;;;;13.93;3.45;;;19.60;93.70;;;;;;4896839;29;20057;-81
2023/05/26 11:59:30;;;;;;;18.23;3.83;;;19.60;93.90;;;;;;4899152;29;20049;-83
2023/05/26 12:01:58;;;;;;;14.27;3.72;;;19.30;93.60;;;;;;4897549;29;20141;-82
2023/05/26 12:04:28;;;;;;;11.40;3.63;;;19.40;93.70;;;;;;4897817;29;20059;-83
2023/05/26 12:06:54;;;;;;;15.13;4.00;;;19.40;93.60;;;;;;4897592;29;20084;-85
2023/05/26 12:09:33;;;;;;;14.00;3.17;;;20.10;94.10;;;;;;4897990;29;20082;-82
2023/05/26 12:11:59;;;;;;;12.40;3.58;;;19.40;93.60;;;;;;4896503;29;20076;-83
2023/05/26 12:14:26;;;;;;;12.30;3.40;;;19.30;93.90;;;;;;4896998;29;20080;-82
2023/05/26 12:17:01;;;;;;;14.65;3.88;;;19.90;93.90;;;;;;4898678;29;20045;-83
2023/05/26 12:19:27;;;;;;;11.05;3.38;;;19.50;93.30;;;;;;4896179;29;20133;-83
2023/05/26 12:21:58;;;;;;;13.63;3.60;;;19.50;93.60;;;;;;4896822;29;20055;-83
2023/05/26 12:24:35;;;;;;;13.73;3.28;;;19.40;93.00;;;;;;4897087;29;20056;-84
2023/05/26 12:27:08;;;;;;;13.85;3.75;;;19.50;93.00;;;;;;4898163;29;20052;-84
2023/05/26 12:29:46;;;;;;;13.15;3.55;;;19.30;92.90;;;;;;4900918;29;20044;-84
2023/05/26 12:32:12;;;;;;;15.75;3.47;;;19.60;93.30;;;;;;4879823;29;20049;-84
2023/05/26 12:38:53;;;;;;;13.80;3.67;;;19.80;92.90;;;;;;4895880;29;20087;-83
2023/05/26 12:41:31;;;;;;;11.07;3.35;;;20.20;92.90;;;;;;4895878;29;20055;-82
2023/05/26 12:44:04;;;;;;;13.45;3.72;;;20.20;92.70;;;;;;4896325;29;20052;-82
2023/05/26 12:46:32;;;;;;;12.77;3.38;;;20.50;92.70;;;;;;4897109;29;20048;-83
2023/05/26 12:48:58;;;;;;;12.38;4.00;;;20.30;92.50;;;;;;4895988;29;20494;-84
2023/05/26 12:51:25;;;;;;;10.73;3.53;;;20.10;92.20;;;;;;4896265;29;20088;-83
2023/05/26 12:53:50;;;;;;;14.35;3.65;;;20.00;92.40;;;;;;4897092;29;20048;-83
2023/05/26 12:56:17;;;;;;;11.85;3.50;;;19.80;92.40;;;;;;4895968;29;20040;-83
2023/05/26 12:58:56;;;;;;;15.40;3.85;;;19.80;92.60;;;;;;4893624;29;20508;-83
2023/05/26 13:01:22;;;;;;;12.82;3.70;;;20.00;92.80;;;;;;4892005;29;20056;-83
2023/05/26 13:03:51;;;;;;;14.75;3.95;;;19.70;93.00;;;;;;4898030;29;20128;-84
2023/05/26 13:06:29;;;;;;;16.73;3.88;;;20.50;93.30;;;;;;4897059;23;20071;-83
2023/05/26 13:08:56;;;;;;;15.50;3.90;;;20.00;93.30;;;;;;4882533;29;20060;-82